Terminal Aerodrome Forecast
Issued by NWS Mt. Holly, NJ

Home | Current Version | Previous Version | Text Only | Print | Product List | Glossary On
Versions: 1 2 3 4 5 6 7 8 9 10 11 12 13 14 15 16 17 18 19 20 21 22 23 24 25 26 27 28 29 30 31 32 33 34 35 36 37 38 39
000
FTAK31 PANC 232347 AAA
TAFABE
TAF AMD
PABE 232347Z 2400/2424 17028G40KT 4SM -RASN BR SCT009 OVC015
      WS020/19070KT
      TEMPO 2400/2403 2SM -RA BKN009
     FM240300 20018G25KT P6SM -SHRA SCT012 OVC020 WS020/23040KT
     FM240600 20016KT P6SM VCSH SCT012 OVC025
     FM241200 19012KT P6SM VCFG SCT008 BKN020
     FM241800 19014KT 4SM -SHSN SCT008 BKN015=

USA.gov is the U.S. government's official web portal to all federal, state and local government web resources and services.